Time;durP1;ratioP1;P1;durP2;ratioP2;P2;SDS_P1;SDS_P2;PMS_P1;PMS_P2;Temp;Humidity;BMP_temperature;BMP_pressure;BME280_temperature;BME280_humidity;BME280_pressure;Samples;Min_cycle;Max_cycle;Signal;HPM_P1;HPM_P2
2023/09/17 00:01:09;;;;;;;16.90;10.40;;;16.70;99.90;;;;;;5009681;28;20766;-86
2023/09/17 00:03:35;;;;;;;16.80;11.23;;;16.70;99.90;;;;;;5008776;28;20057;-90
2023/09/17 00:06:01;;;;;;;19.13;10.75;;;16.70;99.90;;;;;;5009717;28;20033;-87
2023/09/17 00:08:27;;;;;;;12.75;9.00;;;16.70;99.90;;;;;;5009879;28;20590;-89
2023/09/17 00:10:52;;;;;;;10.70;8.88;;;16.70;99.90;;;;;;5009921;28;20048;-88
2023/09/17 00:13:19;;;;;;;15.82;9.95;;;16.70;99.90;;;;;;5009801;28;20021;-89
2023/09/17 00:15:45;;;;;;;13.82;10.07;;;16.70;99.90;;;;;;5010843;28;20101;-89
2023/09/17 00:18:12;;;;;;;17.95;11.30;;;16.70;99.90;;;;;;4996054;28;20030;-86
2023/09/17 00:20:37;;;;;;;17.52;10.82;;;16.70;99.90;;;;;;4990723;28;20129;-88
2023/09/17 00:23:03;;;;;;;22.00;10.95;;;16.70;99.90;;;;;;4990395;28;20170;-87
2023/09/17 00:25:29;;;;;;;15.73;10.38;;;16.70;99.90;;;;;;5010476;28;20037;-87
2023/09/17 00:27:54;;;;;;;14.90;10.40;;;16.70;99.90;;;;;;5010022;28;20069;-89
2023/09/17 00:30:20;;;;;;;18.55;12.25;;;16.70;99.90;;;;;;5009705;28;20460;-88
2023/09/17 00:32:46;;;;;;;21.90;14.27;;;16.70;99.90;;;;;;4998421;28;20064;-88
2023/09/17 00:35:11;;;;;;;19.33;14.07;;;16.70;99.90;;;;;;4992794;28;20030;-88
2023/09/17 00:37:37;;;;;;;19.55;13.13;;;16.70;99.90;;;;;;5009696;28;20045;-88
2023/09/17 00:40:10;;;;;;;18.60;12.38;;;16.70;99.90;;;;;;5009381;28;20182;-87
2023/09/17 00:42:36;;;;;;;17.17;11.77;;;16.70;99.90;;;;;;5009754;28;20029;-87
2023/09/17 00:45:02;;;;;;;18.98;11.13;;;16.60;99.90;;;;;;5009751;28;20033;-83
2023/09/17 00:47:29;;;;;;;16.92;11.32;;;16.60;99.90;;;;;;5008260;28;20022;-89
2023/09/17 00:49:55;;;;;;;15.63;11.23;;;16.60;99.90;;;;;;5009410;28;20027;-89
2023/09/17 00:52:21;;;;;;;18.30;12.32;;;16.50;99.90;;;;;;5008710;28;20139;-88
2023/09/17 00:54:49;;;;;;;18.15;12.57;;;16.50;99.90;;;;;;5009095;28;20117;-89
2023/09/17 00:57:16;;;;;;;15.45;11.85;;;16.50;99.90;;;;;;5009804;28;20046;-89
2023/09/17 00:59:43;;;;;;;17.65;11.50;;;16.40;99.90;;;;;;5009575;28;20581;-87
2023/09/17 01:02:09;;;;;;;14.85;11.30;;;16.40;99.90;;;;;;5008238;28;20060;-87
2023/09/17 01:04:38;;;;;;;18.35;11.45;;;16.30;99.90;;;;;;5009376;28;20442;-87
2023/09/17 01:07:05;;;;;;;19.08;11.27;;;16.30;99.90;;;;;;4998569;28;20030;-87
2023/09/17 01:09:32;;;;;;;15.82;11.93;;;16.20;99.90;;;;;;5007858;28;20037;-87
2023/09/17 01:11:59;;;;;;;16.50;11.15;;;16.20;99.90;;;;;;5008792;28;20030;-89
2023/09/17 01:14:24;;;;;;;15.70;11.27;;;16.20;99.90;;;;;;5008949;28;20510;-88
2023/09/17 01:16:51;;;;;;;15.85;11.00;;;16.20;99.90;;;;;;5008944;28;20038;-88
2023/09/17 01:19:28;;;;;;;15.68;11.50;;;16.10;99.90;;;;;;5003011;28;20096;-86
2023/09/17 01:22:14;;;;;;;16.58;11.75;;;16.10;99.90;;;;;;5009110;28;20034;-87
2023/09/17 01:24:57;;;;;;;16.88;12.63;;;16.10;99.90;;;;;;5007411;28;20040;-88
2023/09/17 01:27:25;;;;;;;16.13;12.15;;;16.00;99.90;;;;;;5009068;28;20061;-87
2023/09/17 01:29:52;;;;;;;18.38;11.80;;;16.00;99.90;;;;;;5008542;28;20025;-88
2023/09/17 01:32:19;;;;;;;16.98;13.15;;;16.00;99.90;;;;;;5004784;28;20040;-87
2023/09/17 01:34:49;;;;;;;20.30;13.70;;;16.00;99.90;;;;;;5000525;28;20023;-87
2023/09/17 01:37:33;;;;;;;17.70;13.20;;;15.90;99.90;;;;;;4989521;28;20089;-88
2023/09/17 01:40:05;;;;;;;17.02;12.07;;;15.90;99.90;;;;;;5004039;28;20049;-88
2023/09/17 01:42:31;;;;;;;15.70;12.38;;;15.90;99.90;;;;;;4999811;28;20345;-87
2023/09/17 01:44:59;;;;;;;17.15;12.25;;;15.90;99.90;;;;;;5008859;28;20403;-88
2023/09/17 01:47:26;;;;;;;16.80;11.02;;;15.80;99.90;;;;;;5008389;28;20026;-87
2023/09/17 01:49:57;;;;;;;13.60;10.23;;;15.80;99.90;;;;;;5008178;28;20040;-87
2023/09/17 01:52:26;;;;;;;15.43;10.00;;;15.70;99.90;;;;;;4988300;28;20026;-88
2023/09/17 01:54:52;;;;;;;17.08;11.82;;;15.70;99.90;;;;;;4986135;28;20492;-89
2023/09/17 01:57:18;;;;;;;16.35;12.27;;;15.70;99.90;;;;;;4996358;28;20042;-87
2023/09/17 01:59:45;;;;;;;17.33;13.45;;;15.70;99.90;;;;;;4989037;28;20085;-88
2023/09/17 02:02:11;;;;;;;21.20;13.30;;;15.70;99.90;;;;;;5005029;28;20069;-88
2023/09/17 02:04:36;;;;;;;20.40;13.30;;;15.60;99.90;;;;;;5005480;28;20107;-86
2023/09/17 02:07:02;;;;;;;19.92;13.65;;;15.60;99.90;;;;;;5005800;28;20041;-87
2023/09/17 02:09:28;;;;;;;21.63;14.07;;;15.60;99.90;;;;;;4997693;28;20037;-87
2023/09/17 02:11:53;;;;;;;19.13;13.50;;;15.60;99.90;;;;;;4990246;28;20034;-86
2023/09/17 02:14:19;;;;;;;20.98;13.88;;;15.60;99.90;;;;;;5006556;28;20033;-87
2023/09/17 02:16:44;;;;;;;18.70;14.07;;;15.60;99.90;;;;;;5005830;28;20523;-86
2023/09/17 02:19:10;;;;;;;20.92;14.45;;;15.60;99.90;;;;;;5005397;28;20125;-87
2023/09/17 02:21:36;;;;;;;21.73;14.23;;;15.60;99.90;;;;;;5006034;28;20030;-87
2023/09/17 02:24:02;;;;;;;19.02;13.10;;;15.50;99.90;;;;;;4988192;28;20480;-86
2023/09/17 02:26:28;;;;;;;18.70;14.43;;;15.50;99.90;;;;;;4986074;28;20109;-86
2023/09/17 02:28:54;;;;;;;20.55;14.25;;;15.50;99.90;;;;;;4995828;28;20077;-87
2023/09/17 02:31:20;;;;;;;17.45;13.05;;;15.50;99.90;;;;;;5005560;28;20471;-88
2023/09/17 02:33:45;;;;;;;15.80;12.32;;;15.50;99.90;;;;;;5005531;28;20042;-87
2023/09/17 02:36:13;;;;;;;18.50;12.70;;;15.50;99.90;;;;;;5005948;28;20121;-86
2023/09/17 02:38:39;;;;;;;22.55;13.20;;;15.50;99.90;;;;;;5005872;28;20061;-86
2023/09/17 02:41:04;;;;;;;21.13;14.32;;;15.50;99.90;;;;;;5005595;28;20065;-88
2023/09/17 02:43:30;;;;;;;18.08;13.48;;;15.50;99.90;;;;;;5007296;28;20435;-86
2023/09/17 02:45:56;;;;;;;18.95;13.10;;;15.50;99.90;;;;;;5006242;28;20535;-88
2023/09/17 02:48:22;;;;;;;18.65;12.63;;;15.50;99.90;;;;;;5006494;28;20117;-88
2023/09/17 02:50:48;;;;;;;17.45;12.70;;;15.50;99.90;;;;;;5006986;28;20036;-88
2023/09/17 02:53:13;;;;;;;18.33;12.40;;;15.50;99.90;;;;;;5005954;28;20529;-87
2023/09/17 02:55:39;;;;;;;17.85;12.10;;;15.50;99.90;;;;;;5005515;28;20045;-87
2023/09/17 02:58:05;;;;;;;17.75;12.50;;;15.60;99.90;;;;;;5004895;28;20047;-88
2023/09/17 03:00:34;;;;;;;19.13;12.45;;;15.60;99.90;;;;;;5004085;28;20597;-87
2023/09/17 03:03:00;;;;;;;18.67;12.57;;;15.60;99.90;;;;;;5004827;28;20053;-87
2023/09/17 03:05:25;;;;;;;21.52;13.77;;;15.60;99.90;;;;;;5005167;28;20034;-88
2023/09/17 03:07:51;;;;;;;19.20;13.63;;;15.60;99.90;;;;;;5005854;28;20032;-87
2023/09/17 03:10:20;;;;;;;19.83;13.65;;;15.70;99.90;;;;;;4993741;28;20033;-87
2023/09/17 03:12:46;;;;;;;18.17;12.63;;;15.70;99.90;;;;;;5006556;28;20018;-87
2023/09/17 03:15:12;;;;;;;18.25;13.63;;;15.70;99.90;;;;;;5005721;28;20683;-86
2023/09/17 03:17:39;;;;;;;17.63;13.55;;;15.70;99.90;;;;;;5006002;28;20182;-88
2023/09/17 03:20:13;;;;;;;20.17;14.23;;;15.70;99.90;;;;;;5007257;28;20029;-89
2023/09/17 03:22:40;;;;;;;20.55;14.25;;;15.70;99.90;;;;;;5007718;28;20064;-87
2023/09/17 03:25:06;;;;;;;17.95;14.18;;;15.70;99.90;;;;;;5006137;28;20113;-87
2023/09/17 03:27:33;;;;;;;21.80;15.38;;;15.70;99.90;;;;;;5006891;28;20107;-87
2023/09/17 03:29:59;;;;;;;19.50;14.98;;;15.70;99.90;;;;;;5006952;28;20491;-88
2023/09/17 03:32:25;;;;;;;20.80;14.60;;;15.80;99.90;;;;;;5007801;28;20499;-85
2023/09/17 03:34:51;;;;;;;22.67;15.25;;;15.80;99.90;;;;;;5010864;28;20076;-86
2023/09/17 03:37:17;;;;;;;21.30;14.27;;;15.80;99.90;;;;;;5011107;28;20534;-87
2023/09/17 03:39:48;;;;;;;21.98;14.82;;;15.90;99.90;;;;;;5010770;28;20021;-88
2023/09/17 03:42:13;;;;;;;21.88;14.70;;;15.90;99.90;;;;;;5010943;28;20033;-86
2023/09/17 03:44:40;;;;;;;20.25;16.13;;;15.90;99.90;;;;;;5011570;28;20036;-87
2023/09/17 03:47:06;;;;;;;23.20;16.92;;;16.00;99.90;;;;;;5010006;28;20034;-89
2023/09/17 03:49:31;;;;;;;23.50;15.13;;;16.10;99.90;;;;;;4991541;28;20129;-88
2023/09/17 03:51:57;;;;;;;18.73;15.98;;;16.10;99.90;;;;;;5008437;28;20080;-87
2023/09/17 03:54:22;;;;;;;24.00;17.67;;;16.10;99.90;;;;;;5010426;28;20030;-86
2023/09/17 03:56:48;;;;;;;28.40;18.80;;;16.10;99.90;;;;;;5010098;28;20046;-87
2023/09/17 03:59:13;;;;;;;27.70;19.50;;;16.20;99.90;;;;;;5010235;28;20018;-87
2023/09/17 04:01:39;;;;;;;28.27;19.17;;;16.20;99.90;;;;;;5010412;28;20414;-88
2023/09/17 04:04:05;;;;;;;33.92;20.35;;;16.20;99.90;;;;;;5010532;28;20022;-87
2023/09/17 04:06:31;;;;;;;30.98;22.25;;;16.20;99.90;;;;;;5008802;28;20034;-84
2023/09/17 04:08:56;;;;;;;36.63;22.63;;;16.30;99.90;;;;;;4999556;28;20042;-87
2023/09/17 04:11:22;;;;;;;36.45;20.80;;;16.40;99.90;;;;;;5008201;28;20137;-88
2023/09/17 04:13:47;;;;;;;32.83;21.63;;;16.40;99.90;;;;;;5008945;28;20430;-84
2023/09/17 04:16:13;;;;;;;31.77;20.90;;;16.40;99.90;;;;;;5007589;28;20057;-87
2023/09/17 04:18:38;;;;;;;29.98;20.85;;;16.50;99.90;;;;;;5006221;28;20046;-86
2023/09/17 04:21:04;;;;;;;30.40;22.15;;;16.50;99.90;;;;;;5007503;28;20076;-87
2023/09/17 04:23:29;;;;;;;37.95;24.27;;;16.50;99.90;;;;;;5008764;28;20474;-88
2023/09/17 04:25:55;;;;;;;32.78;22.50;;;16.60;99.90;;;;;;5005735;28;20041;-86
2023/09/17 04:28:21;;;;;;;29.65;21.45;;;16.60;99.90;;;;;;4988996;28;20117;-87
2023/09/17 04:30:46;;;;;;;30.55;20.80;;;16.70;99.90;;;;;;4987828;28;20049;-88
2023/09/17 04:33:12;;;;;;;26.67;21.02;;;16.70;99.90;;;;;;5002860;28;20443;-86
2023/09/17 04:35:37;;;;;;;30.15;21.02;;;16.70;99.90;;;;;;5006628;28;20140;-86
2023/09/17 04:38:04;;;;;;;31.83;20.98;;;16.70;99.90;;;;;;5008231;28;20034;-87
2023/09/17 04:40:29;;;;;;;29.88;19.73;;;16.70;99.90;;;;;;5005552;28;20057;-87
2023/09/17 04:42:55;;;;;;;29.40;19.35;;;16.70;99.90;;;;;;5008575;28;20064;-88
2023/09/17 04:45:36;;;;;;;37.65;22.05;;;16.70;99.90;;;;;;5007088;28;20026;-87
2023/09/17 04:48:02;;;;;;;28.65;20.25;;;16.70;99.90;;;;;;5004098;28;20080;-86
2023/09/17 04:50:28;;;;;;;28.08;20.23;;;16.70;99.90;;;;;;5008484;28;20037;-86
2023/09/17 04:52:54;;;;;;;34.13;20.92;;;16.60;99.90;;;;;;5006677;28;20448;-89
2023/09/17 04:55:20;;;;;;;30.30;21.13;;;16.60;99.90;;;;;;5007673;28;20347;-88
2023/09/17 04:57:46;;;;;;;33.63;21.17;;;16.60;99.90;;;;;;5007411;28;20038;-87
2023/09/17 05:00:12;;;;;;;39.95;24.60;;;16.70;99.90;;;;;;4994211;28;20035;-87
2023/09/17 05:02:39;;;;;;;37.25;24.65;;;16.80;99.90;;;;;;4987306;28;20558;-89
2023/09/17 05:05:09;;;;;;;39.83;25.23;;;16.80;99.90;;;;;;4987050;28;20670;-87
2023/09/17 05:07:39;;;;;;;41.72;26.83;;;16.90;99.90;;;;;;4986680;28;20065;-88
2023/09/17 05:10:07;;;;;;;35.83;23.25;;;17.00;99.90;;;;;;4991319;28;20030;-88
2023/09/17 05:12:33;;;;;;;37.50;24.20;;;17.00;99.90;;;;;;5007251;28;20037;-88
2023/09/17 05:14:58;;;;;;;36.75;25.48;;;17.10;99.90;;;;;;5007342;28;20030;-87
2023/09/17 05:17:24;;;;;;;42.08;26.63;;;17.20;99.90;;;;;;4989630;28;20034;-88
2023/09/17 05:19:49;;;;;;;34.05;23.45;;;17.30;99.90;;;;;;4987616;28;20672;-88
2023/09/17 05:22:15;;;;;;;36.42;23.20;;;17.30;99.90;;;;;;4988665;28;20360;-88
2023/09/17 05:24:41;;;;;;;31.08;19.70;;;17.40;99.90;;;;;;4991421;28;20071;-87
2023/09/17 05:27:06;;;;;;;30.13;20.92;;;17.40;99.90;;;;;;5006406;28;20073;-87
2023/09/17 05:29:32;;;;;;;34.55;20.77;;;17.50;99.90;;;;;;5007513;28;20045;-82
2023/09/17 05:31:57;;;;;;;32.97;23.10;;;17.50;99.90;;;;;;5007054;28;20034;-87
2023/09/17 05:34:23;;;;;;;35.47;23.08;;;17.50;99.90;;;;;;4989720;28;20439;-86
2023/09/17 05:36:49;;;;;;;40.40;23.02;;;17.60;99.90;;;;;;4987340;28;20069;-89
2023/09/17 05:39:14;;;;;;;37.40;21.27;;;17.60;99.90;;;;;;4988369;28;20097;-88
2023/09/17 05:41:40;;;;;;;33.40;21.77;;;17.70;99.90;;;;;;4996887;28;20033;-88
2023/09/17 05:44:06;;;;;;;29.95;20.30;;;17.70;99.90;;;;;;5008387;28;20030;-87
2023/09/17 05:46:32;;;;;;;31.52;21.02;;;17.70;99.90;;;;;;5007325;28;20121;-87
2023/09/17 05:48:57;;;;;;;24.92;17.15;;;17.80;99.90;;;;;;5007678;28;20068;-86
2023/09/17 05:51:23;;;;;;;24.58;17.92;;;17.80;99.90;;;;;;5006952;28;20168;-88
2023/09/17 05:53:49;;;;;;;22.70;14.02;;;17.80;99.90;;;;;;5005824;28;20145;-88
2023/09/17 05:56:14;;;;;;;19.50;13.60;;;17.70;99.90;;;;;;5006880;28;20037;-86
2023/09/17 05:58:40;;;;;;;23.05;16.83;;;17.80;99.90;;;;;;5004190;28;20436;-88
2023/09/17 06:01:05;;;;;;;29.15;17.98;;;17.80;99.90;;;;;;5005574;28;20030;-86
2023/09/17 06:03:31;;;;;;;28.65;18.42;;;17.70;99.90;;;;;;5003453;28;20021;-86
2023/09/17 06:05:57;;;;;;;29.90;19.35;;;17.80;99.90;;;;;;4986637;28;20034;-87
2023/09/17 06:08:25;;;;;;;27.13;17.88;;;17.80;99.90;;;;;;4988211;28;20113;-88
2023/09/17 06:10:51;;;;;;;27.80;17.58;;;17.90;99.90;;;;;;5006442;28;20029;-87
2023/09/17 06:13:17;;;;;;;21.52;14.48;;;17.90;99.90;;;;;;5003698;28;20044;-87
2023/09/17 06:15:45;;;;;;;30.52;18.65;;;18.00;99.90;;;;;;5006133;28;20033;-86
2023/09/17 06:18:11;;;;;;;24.30;17.48;;;18.00;99.90;;;;;;5010525;28;20076;-84
2023/09/17 06:20:37;;;;;;;25.77;17.23;;;18.10;99.90;;;;;;5008722;28;20025;-87
2023/09/17 06:23:02;;;;;;;30.20;19.67;;;18.10;99.90;;;;;;5008197;28;20037;-86
2023/09/17 06:25:28;;;;;;;34.63;21.38;;;18.20;99.90;;;;;;4998295;28;20037;-87
2023/09/17 06:27:54;;;;;;;30.05;20.15;;;18.20;99.90;;;;;;5002626;28;20125;-87
2023/09/17 06:30:20;;;;;;;33.25;21.30;;;18.20;99.90;;;;;;4993374;28;20076;-87
2023/09/17 06:32:46;;;;;;;34.75;21.83;;;18.30;99.90;;;;;;5000558;28;20483;-89
2023/09/17 06:35:11;;;;;;;35.80;23.45;;;18.40;99.90;;;;;;5005269;28;20113;-89
2023/09/17 06:37:37;;;;;;;36.28;22.95;;;18.40;99.90;;;;;;5004471;28;20029;-90
2023/09/17 06:40:03;;;;;;;33.15;23.38;;;18.50;99.90;;;;;;5006196;28;20142;-88
2023/09/17 06:42:29;;;;;;;33.53;24.10;;;18.60;99.90;;;;;;5002613;28;20034;-88
2023/09/17 06:44:55;;;;;;;33.33;22.60;;;18.60;99.90;;;;;;5010412;28;20030;-90
2023/09/17 06:47:20;;;;;;;35.40;24.30;;;18.70;99.90;;;;;;5008627;28;20026;-88
2023/09/17 06:49:46;;;;;;;35.38;23.63;;;18.80;99.90;;;;;;5010441;28;20610;-89
2023/09/17 06:52:11;;;;;;;29.98;21.20;;;18.90;99.90;;;;;;5008653;28;20038;-91
2023/09/17 06:54:37;;;;;;;33.75;22.73;;;19.00;99.90;;;;;;5007611;28;20124;-88
2023/09/17 06:57:03;;;;;;;29.40;19.75;;;19.20;99.90;;;;;;5007216;28;20107;-89
2023/09/17 06:59:28;;;;;;;33.63;20.73;;;19.40;99.90;;;;;;5009944;28;20037;-87
2023/09/17 07:01:54;;;;;;;30.65;21.15;;;19.50;99.90;;;;;;5008886;28;20037;-92
2023/09/17 07:04:19;;;;;;;28.58;20.77;;;19.60;99.90;;;;;;5000813;28;20104;-88
2023/09/17 07:06:45;;;;;;;31.90;21.25;;;19.60;99.90;;;;;;4998499;28;20539;-88
2023/09/17 07:09:11;;;;;;;27.63;20.50;;;19.60;99.90;;;;;;5003973;28;20424;-89
2023/09/17 07:11:36;;;;;;;26.90;19.60;;;19.60;99.90;;;;;;5013415;28;20025;-91
2023/09/17 07:14:09;;;;;;;27.65;18.55;;;19.60;99.90;;;;;;5011387;28;20041;-89
2023/09/17 07:16:35;;;;;;;30.45;17.60;;;19.60;99.90;;;;;;5014076;28;20117;-90
2023/09/17 07:19:01;;;;;;;22.63;16.70;;;19.70;99.90;;;;;;5013725;28;20026;-91
2023/09/17 07:21:27;;;;;;;24.42;15.60;;;19.70;99.90;;;;;;5015981;28;20121;-91
2023/09/17 07:23:52;;;;;;;23.45;15.05;;;19.70;99.90;;;;;;5021706;28;20136;-88
2023/09/17 07:26:20;;;;;;;26.23;15.20;;;19.80;99.90;;;;;;5016321;28;20069;-95
2023/09/17 07:28:46;;;;;;;21.75;13.90;;;19.80;99.90;;;;;;5019043;28;20022;-89
2023/09/17 07:31:12;;;;;;;18.25;12.95;;;19.80;99.90;;;;;;5011940;28;20026;-90
2023/09/17 07:33:39;;;;;;;16.65;12.75;;;20.00;99.90;;;;;;5021321;28;20018;-90
2023/09/17 07:36:05;;;;;;;18.90;13.13;;;20.00;99.90;;;;;;5019440;28;20036;-92
2023/09/17 07:38:32;;;;;;;16.35;11.05;;;20.10;99.90;;;;;;5016973;28;20471;-88
2023/09/17 07:40:57;;;;;;;17.17;12.15;;;20.20;99.90;;;;;;5015984;28;20133;-91
2023/09/17 07:43:23;;;;;;;17.73;11.90;;;20.30;99.90;;;;;;5017559;28;20169;-89
2023/09/17 07:45:48;;;;;;;15.85;11.55;;;20.50;99.90;;;;;;5016939;28;20098;-90
2023/09/17 07:48:14;;;;;;;16.25;8.90;;;20.80;99.90;;;;;;5015900;28;20026;-87
2023/09/17 07:50:40;;;;;;;11.57;9.00;;;21.40;99.90;;;;;;4997566;28;20041;-91
2023/09/17 07:53:07;;;;;;;17.10;9.20;;;22.10;99.90;;;;;;5005758;28;20087;-89
2023/09/17 07:55:32;;;;;;;13.63;9.00;;;22.40;99.90;;;;;;5009135;28;20050;-91
2023/09/17 07:57:58;;;;;;;15.73;9.40;;;22.50;99.90;;;;;;5012854;28;20072;-90
2023/09/17 08:00:25;;;;;;;14.60;9.57;;;22.30;99.90;;;;;;5015611;28;20628;-90
2023/09/17 08:02:50;;;;;;;13.80;9.35;;;22.00;99.90;;;;;;5013098;28;20045;-90
2023/09/17 08:05:17;;;;;;;13.82;10.05;;;21.70;99.90;;;;;;5010838;28;20022;-87
2023/09/17 08:07:44;;;;;;;13.98;10.35;;;21.60;99.90;;;;;;5007881;28;20139;-89
2023/09/17 08:10:10;;;;;;;12.55;8.85;;;22.00;99.90;;;;;;5004371;28;20029;-89
2023/09/17 08:12:35;;;;;;;16.67;10.55;;;22.40;99.90;;;;;;5010056;28;20121;-90
2023/09/17 08:15:01;;;;;;;11.15;9.27;;;22.60;99.90;;;;;;5011698;28;20035;-88
2023/09/17 08:17:27;;;;;;;14.07;9.85;;;22.60;99.90;;;;;;5011174;28;20092;-87
2023/09/17 08:19:54;;;;;;;13.07;9.98;;;22.40;99.90;;;;;;5006584;28;20037;-88
2023/09/17 08:22:21;;;;;;;14.93;10.55;;;22.30;99.90;;;;;;4991809;28;20033;-89
2023/09/17 08:24:47;;;;;;;14.20;9.57;;;22.20;99.90;;;;;;5009612;28;20060;-89
2023/09/17 08:27:15;;;;;;;16.52;10.48;;;22.20;99.90;;;;;;5010647;28;20109;-90
2023/09/17 08:29:41;;;;;;;17.38;12.02;;;22.40;99.90;;;;;;5004868;28;20098;-90
2023/09/17 08:32:07;;;;;;;17.80;13.18;;;22.50;99.90;;;;;;5012911;28;20672;-87
2023/09/17 08:34:32;;;;;;;16.23;12.35;;;22.70;99.90;;;;;;5011306;28;20026;-89
2023/09/17 08:36:58;;;;;;;17.98;12.90;;;22.90;99.90;;;;;;5013457;28;20096;-90
2023/09/17 08:39:25;;;;;;;19.17;11.80;;;23.30;99.90;;;;;;5010246;28;20454;-90
2023/09/17 08:41:52;;;;;;;16.45;12.00;;;23.20;99.90;;;;;;5012231;28;20109;-90
2023/09/17 08:44:18;;;;;;;13.88;11.60;;;23.20;99.90;;;;;;4998858;28;20104;-89
2023/09/17 08:46:45;;;;;;;13.85;10.85;;;23.20;99.90;;;;;;5008631;28;20337;-89
2023/09/17 08:49:11;;;;;;;14.38;10.93;;;23.10;99.90;;;;;;5003570;28;20053;-88
2023/09/17 08:51:40;;;;;;;13.50;10.50;;;23.30;99.90;;;;;;5004114;28;20037;-88
2023/09/17 08:54:12;;;;;;;14.73;11.55;;;23.30;99.90;;;;;;5004491;28;20033;-89
2023/09/17 08:56:42;;;;;;;15.05;10.95;;;23.40;99.90;;;;;;5021153;28;20048;-88
2023/09/17 08:59:29;;;;;;;12.75;9.18;;;23.90;99.90;;;;;;5009289;28;20033;-90
2023/09/17 09:01:56;;;;;;;11.07;8.18;;;25.10;99.90;;;;;;5017222;28;20048;-88
2023/09/17 09:04:24;;;;;;;10.88;7.40;;;26.40;99.90;;;;;;5015656;28;20062;-89
2023/09/17 09:06:51;;;;;;;8.68;6.90;;;26.50;99.90;;;;;;5014930;28;20116;-91
2023/09/17 09:09:20;;;;;;;9.88;7.57;;;25.90;99.90;;;;;;5010195;28;20040;-86
2023/09/17 09:11:46;;;;;;;11.38;6.97;;;25.00;99.90;;;;;;5020075;28;20056;-91
2023/09/17 09:14:12;;;;;;;9.70;6.32;;;24.20;99.90;;;;;;5008051;28;20026;-90
2023/09/17 09:16:38;;;;;;;7.78;5.55;;;23.50;99.90;;;;;;5009705;28;20038;-89
2023/09/17 09:19:07;;;;;;;7.57;6.00;;;23.00;99.90;;;;;;5013915;28;20021;-90
2023/09/17 09:21:33;;;;;;;6.72;5.00;;;22.70;99.90;;;;;;5016708;28;20037;-90
2023/09/17 09:23:59;;;;;;;6.75;4.95;;;22.50;99.90;;;;;;5016860;28;20478;-89
2023/09/17 09:26:36;;;;;;;6.00;4.50;;;22.50;99.90;;;;;;5001108;28;20081;-88
2023/09/17 09:29:03;;;;;;;6.43;4.28;;;22.70;99.90;;;;;;5006069;28;20527;-89
2023/09/17 09:31:30;;;;;;;7.60;4.47;;;22.90;99.90;;;;;;5010678;28;20040;-90
2023/09/17 09:33:59;;;;;;;6.40;3.60;;;23.20;99.90;;;;;;5017136;28;20029;-92
2023/09/17 09:36:28;;;;;;;6.93;3.88;;;23.60;99.90;;;;;;5016279;28;20065;-91
2023/09/17 09:38:57;;;;;;;4.72;3.13;;;24.00;99.90;;;;;;5013193;28;20572;-90
2023/09/17 09:41:29;;;;;;;5.07;3.30;;;24.10;99.90;;;;;;5009425;28;20380;-89
2023/09/17 09:43:56;;;;;;;5.32;3.05;;;23.90;99.90;;;;;;5003918;28;20030;-92
2023/09/17 09:46:24;;;;;;;4.70;3.33;;;23.70;99.90;;;;;;5004780;28;20110;-87
2023/09/17 09:48:51;;;;;;;5.18;3.15;;;23.50;99.90;;;;;;5003183;28;20458;-86
2023/09/17 09:51:18;;;;;;;5.38;3.53;;;23.20;99.90;;;;;;5000754;28;20033;-85
2023/09/17 09:53:44;;;;;;;6.25;3.22;;;23.00;99.90;;;;;;5000701;28;20041;-87
2023/09/17 09:56:11;;;;;;;5.00;3.28;;;22.70;99.90;;;;;;4987623;28;20846;-88
2023/09/17 09:58:39;;;;;;;5.70;3.55;;;22.40;99.90;;;;;;5004212;28;20075;-87
2023/09/17 10:01:05;;;;;;;4.63;3.33;;;22.10;99.90;;;;;;5006913;28;20034;-89
2023/09/17 10:03:31;;;;;;;5.47;3.30;;;21.80;99.90;;;;;;5005717;28;20037;-86
2023/09/17 10:06:06;;;;;;;3.45;2.70;;;21.70;99.90;;;;;;4999610;28;20081;-87
2023/09/17 10:08:33;;;;;;;4.78;3.67;;;21.60;99.90;;;;;;5003588;28;20069;-88
2023/09/17 10:10:58;;;;;;;4.90;2.90;;;21.60;99.90;;;;;;5006285;28;20034;-88
2023/09/17 10:13:24;;;;;;;6.20;3.45;;;21.60;99.90;;;;;;5006995;28;20034;-87
2023/09/17 10:15:49;;;;;;;6.05;3.33;;;21.60;99.90;;;;;;5006263;28;20131;-89
2023/09/17 10:18:16;;;;;;;3.88;3.20;;;21.50;99.90;;;;;;5006709;28;20490;-87
2023/09/17 10:20:43;;;;;;;7.22;3.55;;;21.60;99.90;;;;;;5006981;28;20045;-85
2023/09/17 10:23:12;;;;;;;4.45;3.53;;;21.70;99.90;;;;;;5002362;28;20117;-87
2023/09/17 10:25:40;;;;;;;6.45;3.50;;;21.60;99.90;;;;;;4988699;28;20080;-86
2023/09/17 10:28:07;;;;;;;6.30;4.13;;;21.50;99.90;;;;;;4999744;28;20057;-87
2023/09/17 10:30:33;;;;;;;8.07;4.85;;;21.40;99.90;;;;;;5005956;28;20080;-90
2023/09/17 10:33:00;;;;;;;8.48;4.43;;;21.10;99.90;;;;;;5012977;28;20036;-89
2023/09/17 10:35:28;;;;;;;6.40;4.25;;;20.90;99.90;;;;;;5013247;28;20034;-92
2023/09/17 10:37:55;;;;;;;7.35;5.15;;;20.70;99.90;;;;;;5009478;28;20104;-92
2023/09/17 10:40:21;;;;;;;8.82;5.03;;;20.60;99.90;;;;;;4997411;28;20488;-90
2023/09/17 10:42:50;;;;;;;10.65;5.97;;;20.50;99.90;;;;;;5003197;28;20028;-90
2023/09/17 10:45:17;;;;;;;9.48;5.85;;;20.40;99.90;;;;;;5007116;28;20026;-89
2023/09/17 10:47:48;;;;;;;9.68;6.82;;;20.30;99.90;;;;;;5003957;28;20076;-89
2023/09/17 10:50:15;;;;;;;12.15;6.35;;;20.20;99.90;;;;;;5012898;28;20379;-88
2023/09/17 10:52:41;;;;;;;8.50;6.18;;;20.10;99.90;;;;;;4995192;28;20053;-87
2023/09/17 10:55:08;;;;;;;9.15;6.80;;;20.10;99.90;;;;;;5002373;28;20113;-90
2023/09/17 10:57:44;;;;;;;10.57;6.63;;;20.10;99.90;;;;;;4990684;28;20040;-86
2023/09/17 11:00:17;;;;;;;9.23;6.18;;;20.10;99.90;;;;;;4998211;28;20395;-91
2023/09/17 11:02:50;;;;;;;10.38;7.25;;;20.20;99.90;;;;;;5007622;28;20386;-87
2023/09/17 11:05:19;;;;;;;12.38;7.30;;;20.10;99.90;;;;;;4997308;28;20032;-87
2023/09/17 11:07:45;;;;;;;16.17;9.55;;;19.90;99.90;;;;;;4992765;28;20034;-84
2023/09/17 11:10:12;;;;;;;15.18;11.13;;;19.60;99.90;;;;;;5001015;28;20088;-82
2023/09/17 11:12:38;;;;;;;15.68;12.77;;;19.10;99.90;;;;;;5000999;28;20034;-82
2023/09/17 11:15:06;;;;;;;19.88;13.88;;;18.80;99.90;;;;;;4984432;28;20523;-81
2023/09/17 11:17:32;;;;;;;20.60;14.52;;;18.50;99.90;;;;;;4982946;28;20061;-83
2023/09/17 11:19:59;;;;;;;23.83;16.13;;;18.30;99.90;;;;;;4985066;28;20034;-81
2023/09/17 11:22:29;;;;;;;24.08;16.70;;;18.30;99.90;;;;;;4984460;28;20088;-80
2023/09/17 11:24:55;;;;;;;25.13;17.43;;;18.30;99.90;;;;;;4981860;28;20033;-77
2023/09/17 11:27:21;;;;;;;30.15;18.98;;;18.30;99.90;;;;;;4995135;28;20284;-78
2023/09/17 11:29:48;;;;;;;25.60;19.25;;;18.40;99.90;;;;;;5010505;28;20037;-76
2023/09/17 11:32:21;;;;;;;30.58;19.98;;;18.40;99.90;;;;;;4999466;28;20018;-78
2023/09/17 11:34:47;;;;;;;30.33;20.85;;;18.30;99.90;;;;;;4991653;28;20067;-77
2023/09/17 11:37:18;;;;;;;27.25;21.83;;;18.30;99.90;;;;;;4993945;28;20402;-79
2023/09/17 11:39:50;;;;;;;;;;;18.30;99.90;;;;;;4999747;28;20033;-78
2023/09/17 11:42:16;;;;;;;38.25;23.35;;;18.30;99.90;;;;;;4996186;28;19917;-78
2023/09/17 11:44:44;;;;;;;39.05;24.35;;;18.40;99.90;;;;;;5000015;28;20060;-78
2023/09/17 11:47:12;;;;;;;37.92;26.25;;;18.50;99.90;;;;;;5000648;28;20041;-78
2023/09/17 11:49:39;;;;;;;38.45;26.58;;;18.60;99.90;;;;;;5003143;28;20029;-79
2023/09/17 11:52:11;;;;;;;39.55;27.30;;;18.80;99.90;;;;;;5003123;28;20048;-78
2023/09/17 11:54:52;;;;;;;41.58;27.00;;;19.00;99.90;;;;;;4999583;28;20063;-79
2023/09/17 11:57:25;;;;;;;34.85;27.30;;;19.20;99.90;;;;;;5005526;28;20503;-80
2023/09/17 11:59:51;;;;;;;30.05;23.92;;;19.50;99.90;;;;;;5004949;28;20604;-80
2023/09/17 12:02:18;;;;;;;27.02;21.65;;;19.60;99.90;;;;;;5007730;28;20033;-80
2023/09/17 12:04:45;;;;;;;29.08;22.55;;;19.60;99.90;;;;;;4996117;28;20030;-80
2023/09/17 12:07:12;;;;;;;27.00;21.67;;;19.70;99.90;;;;;;4987498;28;20029;-80
2023/09/17 12:12:16;;;;;;;29.63;20.92;;;20.00;99.90;;;;;;5007038;28;20033;-79
2023/09/17 12:14:42;;;;;;;24.48;19.85;;;19.90;99.90;;;;;;5005928;28;20034;-80
2023/09/17 12:17:08;;;;;;;26.50;20.45;;;19.90;99.90;;;;;;5005999;28;20095;-80
2023/09/17 12:19:33;;;;;;;23.80;19.75;;;20.10;99.90;;;;;;5005213;28;20455;-79
2023/09/17 12:22:00;;;;;;;25.45;20.45;;;20.40;99.90;;;;;;5006217;28;20079;-80
2023/09/17 12:24:30;;;;;;;25.08;21.35;;;20.70;99.90;;;;;;5003174;28;20112;-80
2023/09/17 12:29:32;;;;;;;23.95;20.23;;;21.20;99.90;;;;;;5006626;28;20967;-80
2023/09/17 12:31:58;;;;;;;25.55;19.50;;;21.60;99.90;;;;;;5001250;28;20057;-81
2023/09/17 12:34:25;;;;;;;21.23;18.08;;;21.70;99.90;;;;;;5002293;28;20064;-80